Time;durP1;ratioP1;P1;durP2;ratioP2;P2;SDS_P1;SDS_P2;PMS_P1;PMS_P2;Temp;Humidity;BMP_temperature;BMP_pressure;BME280_temperature;BME280_humidity;BME280_pressure;Samples;Min_cycle;Max_cycle;Signal;HPM_P1;HPM_P2
2023/01/04 00:01:05;;;;;;;21.40;7.70;;;;;;;2.27;96.35;101030.31;5029336;23;20209;-69
2023/01/04 00:03:31;;;;;;;23.20;8.47;;;;;;;2.14;96.65;101025.75;5021889;23;20205;-70
2023/01/04 00:06:02;;;;;;;22.73;8.67;;;;;;;2.04;97.74;101030.59;5008025;23;20209;-69
2023/01/04 00:08:29;;;;;;;25.17;8.10;;;;;;;1.96;97.99;101020.44;5027790;23;20210;-70
2023/01/04 00:11:07;;;;;;;20.07;8.43;;;;;;;1.91;98.57;101032.97;5027684;23;20292;-69
2023/01/04 00:13:36;;;;;;;17.87;8.50;;;;;;;1.87;98.93;101031.41;5083929;23;20209;-73
2023/01/04 00:16:05;;;;;;;25.10;9.20;;;;;;;1.75;99.35;101027.59;5032821;23;20257;-69
2023/01/04 00:18:34;;;;;;;18.77;8.23;;;;;;;1.71;100.00;101019.94;5023005;23;20209;-71
2023/01/04 00:21:15;;;;;;;25.30;9.77;;;;;;;1.63;100.00;101015.91;5024812;23;20308;-69
2023/01/04 00:23:44;;;;;;;25.93;9.67;;;;;;;1.60;100.00;101016.06;5031125;23;21539;-68
2023/01/04 00:26:13;;;;;;;27.33;10.00;;;;;;;1.48;100.00;101014.03;5071001;23;20208;-72
2023/01/04 00:28:40;;;;;;;31.53;10.27;;;;;;;1.42;100.00;101011.69;5025940;23;20600;-70
2023/01/04 00:31:09;;;;;;;30.73;11.60;;;;;;;1.34;100.00;101025.19;5030218;23;20213;-72
2023/01/04 00:33:36;;;;;;;26.57;11.70;;;;;;;1.32;100.00;101026.19;5027096;23;23665;-70
2023/01/04 00:36:11;;;;;;;25.50;10.50;;;;;;;1.19;100.00;101031.97;5014812;23;20212;-68
2023/01/04 00:38:39;;;;;;;24.23;10.37;;;;;;;1.18;100.00;101030.28;5049768;23;20420;-71
2023/01/04 00:41:07;;;;;;;24.80;10.40;;;;;;;1.17;100.00;101033.81;5030299;23;20216;-70
2023/01/04 00:43:44;;;;;;;29.57;12.07;;;;;;;1.07;100.00;101037.75;5035239;23;20217;-71
2023/01/04 00:46:10;;;;;;;25.70;10.53;;;;;;;0.98;100.00;101040.78;5033346;23;20269;-68
2023/01/04 00:48:37;;;;;;;26.37;12.07;;;;;;;0.96;100.00;101040.88;5032640;23;20477;-71
2023/01/04 00:51:06;;;;;;;31.47;11.33;;;;;;;0.98;100.00;101048.66;5019281;23;22307;-70
2023/01/04 00:53:33;;;;;;;27.53;12.23;;;;;;;0.83;100.00;101043.19;5031649;23;20371;-69
2023/01/04 00:56:00;;;;;;;34.00;12.03;;;;;;;0.77;100.00;101048.72;5028294;23;23441;-69
2023/01/04 00:58:27;;;;;;;32.67;12.63;;;;;;;0.78;100.00;101044.31;5021896;23;20264;-70
2023/01/04 01:00:54;;;;;;;32.77;13.03;;;;;;;0.69;100.00;101055.19;5037932;23;20244;-71
2023/01/04 01:03:20;;;;;;;32.43;12.87;;;;;;;0.65;100.00;101057.09;5047015;23;20210;-71
2023/01/04 01:05:47;;;;;;;33.17;13.00;;;;;;;0.58;100.00;101064.34;5021560;23;20209;-72
2023/01/04 01:08:26;;;;;;;33.70;14.23;;;;;;;0.55;100.00;101058.41;5014192;23;20294;-70
2023/01/04 01:10:53;;;;;;;31.63;13.87;;;;;;;0.53;100.00;101060.22;5036707;23;20214;-70
2023/01/04 01:13:20;;;;;;;34.03;14.63;;;;;;;0.41;100.00;101054.59;5021361;23;21571;-71
2023/01/04 01:15:47;;;;;;;34.03;13.77;;;;;;;0.39;100.00;101059.03;5021799;23;20272;-69
2023/01/04 01:18:14;;;;;;;36.47;14.00;;;;;;;0.37;100.00;101066.09;5050836;23;21121;-70
2023/01/04 01:20:42;;;;;;;36.07;14.43;;;;;;;0.38;100.00;101065.22;5027210;23;20209;-69
2023/01/04 01:23:13;;;;;;;34.37;14.50;;;;;;;0.35;100.00;101067.97;5038829;23;20233;-71
2023/01/04 01:25:40;;;;;;;40.37;14.73;;;;;;;0.28;100.00;101065.66;5029758;23;20205;-70
2023/01/04 01:28:07;;;;;;;39.33;14.73;;;;;;;0.28;100.00;101068.25;5036778;23;20650;-70
2023/01/04 01:30:34;;;;;;;39.37;15.30;;;;;;;0.29;100.00;101064.75;5041853;23;20375;-72
2023/01/04 01:33:00;;;;;;;36.13;13.97;;;;;;;0.29;100.00;101070.81;4999087;23;20285;-70
2023/01/04 01:35:27;;;;;;;44.53;14.60;;;;;;;0.28;100.00;101068.25;5030605;23;20279;-70
2023/01/04 01:37:53;;;;;;;33.30;14.87;;;;;;;0.28;100.00;101063.91;5030475;23;20277;-69
2023/01/04 01:40:20;;;;;;;29.07;14.37;;;;;;;0.35;100.00;101064.47;5050164;23;20209;-72
2023/01/04 01:42:46;;;;;;;33.33;13.93;;;;;;;0.30;100.00;101058.59;5028239;23;20258;-70
2023/01/04 01:45:32;;;;;;;37.20;14.77;;;;;;;0.29;100.00;101049.03;5032347;23;20201;-69
2023/01/04 01:48:10;;;;;;;42.43;15.10;;;;;;;0.34;100.00;101041.84;5024270;23;20205;-69
2023/01/04 01:50:43;;;;;;;34.70;14.73;;;;;;;0.36;100.00;101032.16;5041306;23;20256;-71
2023/01/04 01:53:10;;;;;;;38.67;15.87;;;;;;;0.32;100.00;101036.66;5029508;23;21843;-69
2023/01/04 01:55:39;;;;;;;36.30;15.50;;;;;;;0.25;100.00;101029.13;5026033;23;20225;-71
2023/01/04 01:58:06;;;;;;;35.17;15.27;;;;;;;0.26;100.00;101028.22;5032912;23;20374;-71
2023/01/04 02:00:33;;;;;;;37.57;14.93;;;;;;;0.27;100.00;101041.25;5066313;23;21729;-68
2023/01/04 02:03:15;;;;;;;32.50;14.07;;;;;;;0.29;100.00;101049.03;5024739;23;20224;-69
2023/01/04 02:05:43;;;;;;;33.17;14.27;;;;;;;0.20;100.00;101048.50;5045801;23;20271;-69
2023/01/04 02:08:10;;;;;;;34.77;14.77;;;;;;;0.13;100.00;101041.81;5048324;23;20375;-73
2023/01/04 02:10:37;;;;;;;38.93;15.83;;;;;;;0.09;100.00;101035.00;5029004;23;20428;-70
2023/01/04 02:13:11;;;;;;;37.27;15.70;;;;;;;0.02;100.00;101044.00;5020006;23;20217;-68
2023/01/04 02:16:30;;;;;;;37.30;15.23;;;;;;;0.05;100.00;101048.25;5031789;23;20236;-70
2023/01/04 02:19:23;;;;;;;34.40;15.13;;;;;;;-0.11;100.00;101048.06;5010018;23;20209;-73
2023/01/04 02:22:06;;;;;;;36.43;15.10;;;;;;;-0.13;100.00;101037.66;5026788;23;24172;-69
2023/01/04 02:24:51;;;;;;;31.33;14.37;;;;;;;-0.24;100.00;101035.44;5055440;23;20269;-69
2023/01/04 02:27:45;;;;;;;37.83;15.27;;;;;;;-0.22;100.00;101035.41;5025144;23;20638;-68
2023/01/04 02:30:50;;;;;;;33.10;13.80;;;;;;;-0.26;100.00;101029.47;5024849;23;20209;-68
2023/01/04 02:33:41;;;;;;;33.57;14.87;;;;;;;-0.31;100.00;101018.31;5030198;23;20273;-68
2023/01/04 02:36:17;;;;;;;35.73;14.93;;;;;;;-0.37;100.00;101022.94;5080743;23;23064;-71
2023/01/04 02:39:03;;;;;;;37.33;15.80;;;;;;;-0.43;100.00;101017.03;5046185;23;20254;-69
2023/01/04 02:41:41;;;;;;;35.43;15.67;;;;;;;-0.52;100.00;101022.59;5043958;23;21394;-70
2023/01/04 02:47:07;;;;;;;39.33;15.93;;;;;;;-0.63;100.00;101014.38;5025334;23;21562;-69
2023/01/04 02:52:27;;;;;;;36.60;16.63;;;;;;;-0.65;100.00;101009.19;5024847;23;20213;-71
2023/01/04 02:54:56;;;;;;;37.40;15.70;;;;;;;-0.69;100.00;101009.34;5029009;23;20403;-68
2023/01/04 02:57:37;;;;;;;36.27;15.93;;;;;;;-0.76;100.00;101013.13;5028395;23;20206;-68
2023/01/04 03:00:25;;;;;;;45.73;16.77;;;;;;;-0.77;100.00;101014.00;5012948;23;21702;-69
2023/01/04 03:06:16;;;;;;;35.77;16.33;;;;;;;-0.81;100.00;101017.66;5041604;23;20216;-70
2023/01/04 03:08:55;;;;;;;44.57;17.20;;;;;;;-0.79;100.00;101008.88;5036124;23;20205;-68
2023/01/04 03:14:16;;;;;;;41.33;16.33;;;;;;;-0.79;100.00;101002.78;5000163;23;20205;-68
2023/01/04 03:17:01;;;;;;;39.67;15.60;;;;;;;-0.76;100.00;100989.59;5031280;23;20387;-69
2023/01/04 03:36:28;;;;;;;38.73;16.93;;;;;;;-0.47;100.00;100965.78;5007830;23;20216;-68
2023/01/04 03:48:30;;;;;;;37.40;16.43;;;;;;;-0.50;100.00;100976.34;5042163;23;20617;-68
2023/01/04 03:51:00;;;;;;;43.03;16.53;;;;;;;-0.30;100.00;100962.50;5013089;23;20280;-68
2023/01/04 03:53:27;;;;;;;37.37;14.93;;;;;;;-0.26;100.00;100953.63;5041889;23;20201;-70
2023/01/04 03:55:55;;;;;;;36.10;15.83;;;;;;;-0.26;100.00;100948.38;5008229;23;20216;-69
2023/01/04 03:58:22;;;;;;;41.67;15.90;;;;;;;-0.31;100.00;100945.09;5027902;23;20277;-70
2023/01/04 04:00:48;;;;;;;38.23;15.00;;;;;;;-0.29;100.00;100950.25;5029324;23;21119;-67
2023/01/04 04:03:15;;;;;;;35.20;15.27;;;;;;;-0.25;100.00;100952.69;5024157;23;20236;-68
2023/01/04 04:08:29;;;;;;;37.93;15.03;;;;;;;-0.20;100.00;100956.88;5029123;23;20776;-70
2023/01/04 04:13:49;;;;;;;37.97;14.83;;;;;;;-0.34;100.00;100949.59;5021740;23;20408;-68
2023/01/04 04:16:16;;;;;;;32.07;14.27;;;;;;;-0.29;100.00;100948.50;5025088;23;21849;-69
2023/01/04 04:18:43;;;;;;;40.37;14.50;;;;;;;-0.34;100.00;100945.22;5054050;23;20206;-68
2023/01/04 04:21:09;;;;;;;34.97;14.60;;;;;;;-0.42;100.00;100949.94;5045350;23;21552;-69
2023/01/04 04:23:36;;;;;;;37.83;15.67;;;;;;;-0.44;100.00;100955.19;5027311;23;20410;-67
2023/01/04 04:26:02;;;;;;;37.87;15.13;;;;;;;-0.34;100.00;100954.84;5034786;23;20256;-67
2023/01/04 04:28:29;;;;;;;38.00;14.90;;;;;;;-0.45;100.00;100948.25;5046316;23;20201;-69
2023/01/04 04:30:55;;;;;;;37.07;15.17;;;;;;;-0.65;100.00;100950.84;5048406;23;21366;-67
2023/01/04 04:33:22;;;;;;;43.47;15.60;;;;;;;-0.58;100.00;100939.22;5031482;23;20384;-68
2023/01/04 04:35:52;;;;;;;36.27;15.20;;;;;;;-0.45;100.00;100935.19;5014719;23;20720;-68
2023/01/04 04:38:20;;;;;;;39.50;15.13;;;;;;;-0.44;100.00;100934.28;5029485;23;20461;-69
2023/01/04 04:43:37;;;;;;;30.03;14.90;;;;;;;-0.35;100.00;100940.03;5007616;23;21712;-69
2023/01/04 04:46:04;;;;;;;36.07;15.43;;;;;;;-0.34;100.00;100940.00;5014507;23;20616;-68
2023/01/04 04:48:30;;;;;;;36.73;16.20;;;;;;;-0.44;100.00;100936.91;5032564;23;22273;-68
2023/01/04 04:50:57;;;;;;;47.20;16.73;;;;;;;-0.31;100.00;100936.41;5031131;23;20213;-69
2023/01/04 04:53:23;;;;;;;40.60;16.00;;;;;;;-0.41;100.00;100937.69;5035088;23;20212;-69
2023/01/04 04:55:51;;;;;;;42.37;16.40;;;;;;;-0.50;100.00;100934.53;5033743;23;21176;-68
2023/01/04 04:58:17;;;;;;;34.23;13.93;;;;;;;-0.43;100.00;100937.75;5048512;23;20856;-69
2023/01/04 05:00:44;;;;;;;37.80;16.17;;;;;;;-0.28;100.00;100938.88;5008363;23;20303;-68
2023/01/04 05:03:11;;;;;;;40.23;15.23;;;;;;;-0.22;100.00;100934.25;5005365;23;20205;-69
2023/01/04 05:05:38;;;;;;;33.90;15.13;;;;;;;-0.28;100.00;100933.66;5037942;23;20232;-69
2023/01/04 05:08:04;;;;;;;40.40;15.23;;;;;;;-0.24;100.00;100937.84;5031138;23;20204;-69
2023/01/04 05:10:31;;;;;;;39.70;16.53;;;;;;;-0.22;100.00;100943.88;5039775;23;21741;-69
2023/01/04 05:13:00;;;;;;;39.30;15.70;;;;;;;-0.16;100.00;100948.00;5028157;23;25328;-70
2023/01/04 05:15:33;;;;;;;45.23;16.17;;;;;;;-0.25;100.00;100938.75;5033690;23;20378;-70
2023/01/04 05:18:00;;;;;;;36.47;15.40;;;;;;;-0.20;100.00;100944.66;5042687;23;22922;-68
2023/01/04 05:20:27;;;;;;;37.40;16.33;;;;;;;-0.15;100.00;100939.22;5023608;23;20202;-70
2023/01/04 05:22:54;;;;;;;43.23;16.43;;;;;;;-0.14;100.00;100928.72;5024787;23;21260;-68
2023/01/04 05:25:20;;;;;;;41.57;17.23;;;;;;;-0.02;100.00;100920.34;5032425;23;21333;-69
2023/01/04 05:27:47;;;;;;;38.30;17.10;;;;;;;-0.08;100.00;100909.28;5026997;23;20326;-68
2023/01/04 05:33:01;;;;;;;38.27;16.80;;;;;;;-0.23;100.00;100916.03;5023287;23;22978;-67
2023/01/04 05:35:28;;;;;;;44.27;16.83;;;;;;;-0.28;100.00;100910.09;5042524;23;20554;-69
2023/01/04 05:37:55;;;;;;;39.63;17.00;;;;;;;-0.24;100.00;100909.91;5011988;23;20268;-68
2023/01/04 05:40:22;;;;;;;41.27;17.07;;;;;;;-0.16;100.00;100904.38;5029673;23;20285;-70
2023/01/04 05:42:48;;;;;;;41.67;18.47;;;;;;;-0.15;100.00;100903.47;5017646;23;20371;-71
2023/01/04 05:45:16;;;;;;;48.47;17.47;;;;;;;-0.20;100.00;100904.56;5030485;23;20310;-69
2023/01/04 05:47:42;;;;;;;39.17;16.93;;;;;;;-0.20;100.00;100896.72;5038561;23;20209;-69
2023/01/04 05:50:09;;;;;;;41.10;17.37;;;;;;;-0.20;100.00;100891.50;5045857;23;20704;-70
2023/01/04 05:52:36;;;;;;;46.57;18.57;;;;;;;-0.17;100.00;100892.22;5080295;23;20665;-70
2023/01/04 05:55:03;;;;;;;45.87;18.13;;;;;;;-0.23;100.00;100892.47;5025206;23;22957;-69
2023/01/04 05:57:29;;;;;;;47.53;18.20;;;;;;;-0.19;100.00;100890.56;5041954;23;23509;-71
2023/01/04 05:59:56;;;;;;;53.80;18.97;;;;;;;-0.25;100.00;100887.31;5018628;23;20208;-69
2023/01/04 06:02:25;;;;;;;54.07;18.60;;;;;;;-0.23;100.00;100882.88;5045288;23;20284;-71
2023/01/04 06:04:51;;;;;;;46.63;17.93;;;;;;;-0.24;100.00;100894.22;5027143;23;20304;-69
2023/01/04 06:07:25;;;;;;;48.20;18.90;;;;;;;-0.29;100.00;100890.13;5021925;23;20272;-69
2023/01/04 06:09:51;;;;;;;51.03;19.00;;;;;;;-0.25;100.00;100881.25;5020375;23;24670;-70
2023/01/04 06:12:18;;;;;;;47.93;18.60;;;;;;;-0.24;100.00;100883.75;5051582;23;20212;-69
2023/01/04 06:14:44;;;;;;;45.07;19.27;;;;;;;-0.15;100.00;100879.06;5035163;23;20613;-69
2023/01/04 06:17:11;;;;;;;48.97;18.73;;;;;;;-0.44;100.00;100861.09;5026222;23;23002;-68
2023/01/04 06:19:38;;;;;;;48.93;19.10;;;;;;;-0.53;100.00;100858.84;5023448;23;21787;-70
2023/01/04 06:22:06;;;;;;;43.87;18.10;;;;;;;-0.43;100.00;100857.53;5024309;23;24045;-71
2023/01/04 06:24:33;;;;;;;50.40;20.27;;;;;;;-0.43;100.00;100847.09;5028532;23;20316;-70
2023/01/04 06:27:02;;;;;;;50.13;18.97;;;;;;;-0.38;100.00;100838.22;5029711;23;20208;-71
2023/01/04 06:29:29;;;;;;;52.77;20.23;;;;;;;-0.23;100.00;100835.78;5031850;23;20765;-70
2023/01/04 06:31:55;;;;;;;46.87;18.90;;;;;;;-0.20;100.00;100833.97;5023063;23;20721;-65
2023/01/04 06:34:22;;;;;;;60.67;19.40;;;;;;;-0.26;100.00;100835.94;5053604;23;23503;-68
2023/01/04 06:36:56;;;;;;;52.07;19.00;;;;;;;-0.23;100.00;100832.34;5040844;23;21172;-71
2023/01/04 06:39:22;;;;;;;48.57;18.93;;;;;;;-0.30;100.00;100830.91;5016923;23;20205;-67
2023/01/04 06:41:49;;;;;;;41.63;18.73;;;;;;;-0.28;100.00;100829.03;5017190;23;21582;-69
2023/01/04 06:44:16;;;;;;;48.17;18.83;;;;;;;-0.36;100.00;100825.94;5038152;23;21630;-71
2023/01/04 06:46:42;;;;;;;44.97;18.33;;;;;;;-0.30;100.00;100829.13;5029784;23;20209;-71
2023/01/04 06:49:09;;;;;;;42.53;17.33;;;;;;;-0.37;100.00;100829.47;5051905;23;20295;-72
2023/01/04 06:51:35;;;;;;;40.00;17.07;;;;;;;-0.34;100.00;100829.31;5128789;23;20224;-70
2023/01/04 06:54:02;;;;;;;43.70;17.37;;;;;;;-0.39;100.00;100832.13;5022936;23;20631;-69
2023/01/04 06:56:30;;;;;;;46.67;18.50;;;;;;;-0.34;100.00;100829.31;5018926;23;20235;-69
2023/01/04 06:58:57;;;;;;;41.77;19.00;;;;;;;-0.28;100.00;100829.91;5032332;23;20224;-71
2023/01/04 07:01:24;;;;;;;45.77;18.30;;;;;;;-0.41;100.00;100833.13;5044675;23;25546;-69
2023/01/04 07:03:51;;;;;;;38.87;17.63;;;;;;;-0.31;100.00;100842.25;5049180;23;20751;-69
2023/01/04 07:06:21;;;;;;;46.37;17.83;;;;;;;-0.43;100.00;100841.03;5174412;23;20204;-72
2023/01/04 07:08:48;;;;;;;50.20;18.63;;;;;;;-0.47;100.00;100856.00;5056985;23;25967;-69
2023/01/04 07:11:14;;;;;;;46.97;19.77;;;;;;;-0.37;100.00;100853.00;5031951;23;20209;-71
2023/01/04 07:13:41;;;;;;;48.30;18.93;;;;;;;-0.23;100.00;100858.50;5036725;23;20206;-71
2023/01/04 07:16:07;;;;;;;40.37;18.07;;;;;;;-0.21;100.00;100861.88;5041466;23;20201;-72
2023/01/04 07:18:35;;;;;;;46.30;18.23;;;;;;;-0.05;100.00;100860.31;5105868;23;21172;-72
2023/01/04 07:21:02;;;;;;;43.57;18.97;;;;;;;-0.07;100.00;100859.53;5098981;23;20425;-69
2023/01/04 07:23:28;;;;;;;57.83;21.13;;;;;;;0.01;100.00;100855.72;5032023;23;20213;-69
2023/01/04 07:25:59;;;;;;;47.63;20.43;;;;;;;0.05;100.00;100846.81;5020953;23;20208;-71
2023/01/04 07:31:11;;;;;;;46.03;19.20;;;;;;;0.11;100.00;100846.53;5037345;23;20272;-69
2023/01/04 07:33:38;;;;;;;57.97;21.90;;;;;;;0.06;100.00;100840.66;5047597;23;20275;-72
2023/01/04 07:36:05;;;;;;;45.47;19.17;;;;;;;0.21;100.00;100847.81;5033615;23;20224;-70
2023/01/04 07:38:33;;;;;;;52.50;20.00;;;;;;;0.16;100.00;100840.19;5030135;23;20213;-68
2023/01/04 07:41:00;;;;;;;57.57;21.57;;;;;;;0.14;100.00;100842.03;5045591;23;20391;-70
2023/01/04 07:43:26;;;;;;;57.53;20.93;;;;;;;0.21;100.00;100834.72;5059541;23;20205;-75
2023/01/04 07:45:54;;;;;;;50.80;21.50;;;;;;;0.16;100.00;100821.00;5046261;23;20208;-69
2023/01/04 07:48:21;;;;;;;49.97;20.83;;;;;;;0.34;100.00;100822.81;5037964;23;20417;-69
2023/01/04 07:50:49;;;;;;;44.10;19.70;;;;;;;0.43;100.00;100825.94;5038088;23;20725;-68
2023/01/04 07:53:15;;;;;;;48.27;19.03;;;;;;;0.46;100.00;100826.63;5058303;23;21897;-73
2023/01/04 07:55:42;;;;;;;49.90;20.27;;;;;;;0.56;100.00;100822.69;5037787;23;20211;-71
2023/01/04 07:58:08;;;;;;;47.70;19.20;;;;;;;0.51;100.00;100813.31;5019303;23;20205;-71
2023/01/04 08:00:35;;;;;;;54.60;20.03;;;;;;;0.49;100.00;100808.19;5037981;23;20230;-68
2023/01/04 08:03:02;;;;;;;54.43;19.17;;;;;;;0.56;100.00;100800.84;5034603;23;20206;-69
2023/01/04 08:05:33;;;;;;;48.83;19.50;;;;;;;0.60;100.00;100797.19;5031634;23;23122;-68
2023/01/04 08:07:59;;;;;;;48.40;19.47;;;;;;;0.62;100.00;100790.09;5043323;23;20217;-74
2023/01/04 08:10:26;;;;;;;43.97;19.97;;;;;;;0.59;100.00;100792.88;5034214;23;20213;-69
2023/01/04 08:12:53;;;;;;;48.07;19.53;;;;;;;0.69;100.00;100791.50;5030937;23;20348;-70
2023/01/04 08:15:20;;;;;;;44.03;19.50;;;;;;;0.65;100.00;100778.63;5005628;23;25328;-69
2023/01/04 08:17:46;;;;;;;48.03;19.73;;;;;;;0.66;100.00;100781.19;5048364;23;21749;-70
2023/01/04 08:20:13;;;;;;;48.20;19.77;;;;;;;0.76;100.00;100773.72;5025174;23;20299;-66
2023/01/04 08:22:39;;;;;;;48.17;20.40;;;;;;;0.74;100.00;100773.78;5024470;23;20205;-67
2023/01/04 08:25:06;;;;;;;51.80;19.70;;;;;;;0.77;100.00;100773.66;5065800;23;21332;-70
2023/01/04 08:27:33;;;;;;;50.90;21.63;;;;;;;0.88;100.00;100769.66;5084119;23;20266;-70
2023/01/04 08:30:00;;;;;;;44.70;20.53;;;;;;;1.07;100.00;100759.97;5081146;23;21474;-67
2023/01/04 08:32:26;;;;;;;47.10;21.03;;;;;;;1.13;100.00;100764.91;5032726;23;20209;-71
2023/01/04 08:34:53;;;;;;;40.10;18.67;;;;;;;1.16;100.00;100764.75;5097247;23;20209;-68
2023/01/04 08:37:20;;;;;;;48.00;19.97;;;;;;;1.38;100.00;100756.66;5099852;23;20208;-68
2023/01/04 08:39:46;;;;;;;45.40;19.60;;;;;;;1.51;100.00;100753.41;5102877;23;20217;-70
2023/01/04 08:42:15;;;;;;;54.33;21.37;;;;;;;1.59;100.00;100767.84;5093703;23;20379;-71
2023/01/04 08:44:59;;;;;;;52.77;19.70;;;;;;;1.79;100.00;100763.31;5111720;23;21584;-72
2023/01/04 08:47:28;;;;;;;48.93;20.93;;;;;;;1.88;100.00;100760.19;5106701;23;20248;-69
2023/01/04 08:50:01;;;;;;;49.70;21.67;;;;;;;2.05;99.90;100759.28;5219193;23;22426;-70
2023/01/04 08:52:36;;;;;;;42.63;19.17;;;;;;;2.84;98.36;100764.56;5069895;23;24955;-70
2023/01/04 08:55:04;;;;;;;43.57;18.70;;;;;;;4.17;92.35;100763.63;5144969;23;20268;-73
2023/01/04 08:57:39;;;;;;;42.70;18.37;;;;;;;6.20;81.56;100781.84;5148153;23;20208;-73
2023/01/04 09:00:07;;;;;;;36.13;15.70;;;;;;;8.17;68.93;100794.53;5112685;23;21245;-55
2023/01/04 09:02:34;;;;;;;47.40;15.77;;;;;;;10.39;59.73;100819.56;5126567;23;22300;-66
2023/01/04 09:05:02;;;;;;;33.40;15.63;;;;;;;11.06;53.22;100807.41;5125606;23;21208;-67
2023/01/04 09:07:30;;;;;;;34.27;15.27;;;;;;;11.69;49.99;100796.31;5131288;23;20222;-67
2023/01/04 09:09:57;;;;;;;33.80;16.23;;;;;;;11.75;49.44;100787.75;5150193;23;20238;-65
2023/01/04 09:12:23;;;;;;;34.73;15.50;;;;;;;11.89;49.59;100798.94;5106939;23;20208;-67
2023/01/04 09:14:50;;;;;;;35.77;15.00;;;;;;;12.37;47.95;100788.09;5082397;23;20220;-67
2023/01/04 09:17:17;;;;;;;30.87;14.97;;;;;;;12.64;47.09;100784.59;5085418;23;20204;-70
2023/01/04 09:19:45;;;;;;;32.37;13.77;;;;;;;13.63;43.14;100791.69;5101845;23;20969;-69
2023/01/04 09:22:15;;;;;;;26.17;14.00;;;;;;;14.80;39.34;100792.09;5253781;23;21027;-67
2023/01/04 09:24:42;;;;;;;27.53;13.73;;;;;;;15.38;38.46;100783.13;5139537;23;20205;-69
2023/01/04 09:27:10;;;;;;;25.37;13.90;;;;;;;13.94;39.86;100767.16;5058036;23;21531;-66
2023/01/04 09:29:37;;;;;;;32.37;14.17;;;;;;;11.54;44.97;100747.94;5043926;23;20615;-70
2023/01/04 09:32:04;;;;;;;29.00;14.60;;;;;;;9.70;52.28;100733.31;5068929;23;20218;-67
2023/01/04 09:34:30;;;;;;;35.40;15.57;;;;;;;8.18;59.90;100705.25;5094885;23;20213;-65
2023/01/04 09:36:57;;;;;;;42.00;16.93;;;;;;;7.46;63.58;100702.97;5089887;23;20847;-68
2023/01/04 09:39:25;;;;;;;39.77;15.47;;;;;;;7.03;66.16;100701.78;5040908;23;20205;-66
2023/01/04 09:42:02;;;;;;;36.80;15.27;;;;;;;7.14;67.60;100699.19;5055580;23;20201;-67
2023/01/04 09:44:40;;;;;;;34.40;14.20;;;;;;;7.76;65.60;100694.44;5097944;23;21699;-67
2023/01/04 09:47:33;;;;;;;40.70;15.63;;;;;;;7.69;64.49;100678.19;5129724;23;20561;-71
2023/01/04 09:50:06;;;;;;;33.17;14.40;;;;;;;6.82;67.87;100661.06;5109032;23;21469;-68
2023/01/04 09:52:37;;;;;;;29.47;14.33;;;;;;;6.02;72.33;100656.38;5095719;23;21443;-66
2023/01/04 09:55:13;;;;;;;34.10;14.00;;;;;;;5.66;75.39;100655.34;5126719;23;21629;-68
2023/01/04 09:58:04;;;;;;;29.50;13.67;;;;;;;5.84;75.69;100643.47;5099582;23;20212;-66
2023/01/04 10:00:34;;;;;;;30.57;14.27;;;;;;;6.13;73.68;100635.28;5151942;23;20211;-68
2023/01/04 10:03:16;;;;;;;32.73;13.53;;;;;;;5.74;75.22;100634.53;5048618;23;20217;-69
2023/01/04 10:05:44;;;;;;;35.30;13.30;;;;;;;5.33;76.64;100634.78;5060294;23;20211;-66
2023/01/04 10:08:22;;;;;;;34.30;13.73;;;;;;;5.36;77.50;100635.44;5043600;23;20239;-67
2023/01/04 10:10:53;;;;;;;32.77;13.30;;;;;;;5.36;77.73;100622.25;5066883;23;20209;-70
2023/01/04 10:13:37;;;;;;;27.97;12.57;;;;;;;5.10;78.08;100615.25;5148067;23;20211;-67
2023/01/04 10:16:22;;;;;;;29.77;13.10;;;;;;;4.89;79.93;100607.88;5090709;23;21626;-66
2023/01/04 10:19:21;;;;;;;28.50;13.23;;;;;;;5.31;78.86;100592.66;5071848;23;22763;-67
2023/01/04 10:22:22;;;;;;;27.90;12.40;;;;;;;6.10;77.19;100587.94;5369384;23;20212;-69
2023/01/04 10:25:22;;;;;;;30.27;12.10;;;;;;;7.17;70.59;100590.44;5283256;23;21420;-68
2023/01/04 10:28:05;;;;;;;31.73;12.50;;;;;;;7.49;68.47;100576.47;5278362;23;21097;-70
2023/01/04 10:30:31;;;;;;;28.70;11.63;;;;;;;7.33;68.74;100560.97;5236826;23;21586;-65
2023/01/04 10:33:06;;;;;;;27.77;12.33;;;;;;;7.13;68.88;100554.56;5317849;23;20215;-71
2023/01/04 10:35:36;;;;;;;29.70;12.20;;;;;;;6.99;69.77;100544.22;5129765;23;25131;-66
2023/01/04 10:38:09;;;;;;;24.47;11.60;;;;;;;6.76;70.52;100525.66;5090180;23;20224;-67
2023/01/04 10:40:38;;;;;;;26.13;12.57;;;;;;;6.67;72.44;100507.91;5063430;23;20205;-66
2023/01/04 10:43:13;;;;;;;32.00;12.97;;;;;;;6.76;73.05;100498.38;5077135;23;20212;-50
2023/01/04 10:46:02;;;;;;;32.80;13.77;;;;;;;6.95;71.86;100482.78;5070886;23;20209;-71
2023/01/04 10:48:34;;;;;;;33.13;14.13;;;;;;;6.37;73.07;100475.84;5120822;23;20264;-69
2023/01/04 10:51:02;;;;;;;31.47;15.17;;;;;;;6.10;74.06;100464.63;5076658;23;22268;-70
2023/01/04 10:53:43;;;;;;;33.83;13.67;;;;;;;5.89;75.34;100450.34;5061030;23;21205;-68
2023/01/04 10:56:29;;;;;;;32.63;13.80;;;;;;;5.70;76.74;100443.78;5065483;23;20209;-70
2023/01/04 10:58:56;;;;;;;30.83;13.63;;;;;;;5.64;77.34;100439.00;5087182;23;21156;-67
2023/01/04 11:01:30;;;;;;;27.77;13.43;;;;;;;5.46;78.37;100438.53;5061385;23;20242;-69
2023/01/04 11:04:34;;;;;;;27.27;12.50;;;;;;;5.32;79.93;100414.94;5016721;23;20612;-68
2023/01/04 11:07:20;;;;;;;31.27;12.40;;;;;;;4.99;80.77;100413.78;5068786;23;20204;-68
2023/01/04 11:09:49;;;;;;;30.17;14.20;;;;;;;4.82;82.19;100414.13;5034365;23;20475;-68
2023/01/04 11:12:19;;;;;;;30.37;14.23;;;;;;;4.88;82.87;100416.34;5026720;23;20218;-67
2023/01/04 11:14:46;;;;;;;29.73;14.40;;;;;;;4.56;83.91;100410.69;5019733;23;20209;-67
2023/01/04 11:17:13;;;;;;;32.80;14.40;;;;;;;4.37;86.15;100408.50;5023557;23;20954;-70
2023/01/04 11:19:40;;;;;;;35.03;15.00;;;;;;;4.41;86.27;100399.44;5106049;23;22113;-70
2023/01/04 11:22:42;;;;;;;31.43;15.27;;;;;;;4.43;87.19;100390.47;5082466;23;20205;-69
2023/01/04 11:25:14;;;;;;;32.20;14.80;;;;;;;4.27;88.24;100383.75;5036038;23;20208;-70
2023/01/04 11:28:35;;;;;;;34.10;14.80;;;;;;;4.08;89.33;100373.63;5058656;23;25142;-67
2023/01/04 11:31:08;;;;;;;37.70;14.33;;;;;;;4.10;89.77;100367.31;5050143;23;20280;-69
2023/01/04 11:33:58;;;;;;;35.93;14.23;;;;;;;4.13;89.77;100359.19;5049784;23;20215;-69
2023/01/04 11:36:38;;;;;;;36.53;16.13;;;;;;;4.09;90.64;100338.44;5049579;23;20208;-69
2023/01/04 11:39:15;;;;;;;37.23;15.80;;;;;;;4.15;90.26;100333.59;5018364;23;22873;-71
2023/01/04 11:41:56;;;;;;;34.53;15.60;;;;;;;4.07;91.33;100325.38;5060775;23;20204;-70
2023/01/04 11:44:30;;;;;;;31.40;15.53;;;;;;;4.04;91.35;100312.44;5029560;23;20379;-69
2023/01/04 11:47:26;;;;;;;42.77;16.83;;;;;;;4.03;91.58;100313.41;5035095;23;20224;-69
2023/01/04 11:49:58;;;;;;;39.97;15.23;;;;;;;3.98;92.13;100300.53;5010046;23;20303;-68
2023/01/04 11:52:36;;;;;;;35.30;15.63;;;;;;;3.98;92.71;100290.00;5041374;23;20387;-70
2023/01/04 11:55:22;;;;;;;40.40;16.13;;;;;;;4.10;92.49;100277.78;5053346;23;20215;-67
2023/01/04 11:58:11;;;;;;;36.80;15.67;;;;;;;4.15;91.47;100262.50;5012715;23;20205;-69
2023/01/04 12:00:48;;;;;;;33.23;15.73;;;;;;;4.19;91.84;100250.81;5050249;23;20227;-71
2023/01/04 12:03:17;;;;;;;33.53;15.27;;;;;;;4.08;91.76;100245.44;4996351;23;22181;-69
2023/01/04 12:05:44;;;;;;;35.20;15.33;;;;;;;4.08;92.33;100248.09;5025197;23;20205;-71
2023/01/04 12:08:27;;;;;;;36.00;16.03;;;;;;;4.13;92.45;100235.44;5082627;23;20302;-68
2023/01/04 12:10:58;;;;;;;35.07;15.47;;;;;;;4.05;92.71;100226.38;5056694;23;20209;-69
2023/01/04 12:13:24;;;;;;;36.33;16.33;;;;;;;4.01;93.11;100220.50;5006145;23;22486;-70
2023/01/04 12:15:57;;;;;;;35.77;16.70;;;;;;;4.05;92.93;100232.50;5081233;23;20209;-71
2023/01/04 12:18:35;;;;;;;36.47;16.47;;;;;;;4.14;92.77;100228.38;5022502;23;20498;-70
2023/01/04 12:21:02;;;;;;;33.50;15.60;;;;;;;4.16;92.92;100224.66;5007559;23;21017;-70